Lusk, WY (82225)

7:04 AM MDT on April 28, 2015 (GMT -0600)
LEMS | | Change Station
CLOSE
Current Station
Personal Weather Station
Location: Lusk, WY
Elevation: 5070 ft
Nearby Weather Stations

Elev 5070 ft 42.76 °N, 104.45 °W | Updated 2 minutes ago

Overcast
Overcast
41.8 °F
Feels Like 42 °F
N
1.0
Wind Variable Wind from WNW
Gusts 3.0 mph

Today
High -- | Low -- °F
--% Chance of Precip.
Yesterday
High -- | Low -- °F
Precip. -- in
5:56 AM 7:54 PM
Waxing Gibbous, 73% visible
Pressure 30.34 in
Visibility 9.0 miles
Clouds Few 2900 ft
Windchill 42 °F
Dew Point 37 °F
Humidity 83%
Rainfall 0.00 in
Snow Depth Not available.
UV 0 out of 12
Pollen 9.10 out of 12
Air Quality Not available.
Flu Activity Local Activity
METAR KDGW 281253Z AUTO 00000KT 9SM FEW029 04/03 A3034 RMK AO2 SLP274 T00390033

More Conditions Fewer Conditions

Pressure 30.34 in
Visibility 9.0 miles
Clouds Few 2900 ft
Windchill 42 °F
Dew Point 37 °F
Humidity 83%
Rainfall 0.00 in
Snow Depth Not available.
UV 0 out of 12
Pollen 9.10 out of 12
Air Quality Not available.
Flu Activity Local Activity
METAR KDGW 281253Z AUTO 00000KT 9SM FEW029 04/03 A3034 RMK AO2 SLP274 T00390033

More Conditions Fewer Conditions

10-Day Weather Forecast

Almanac

Astronomy

Apr. 28, 2015 Rise Set
Actual Time
Civil Twilight
Nautical Twilight
Astronomical Twilight
Moon
Length of Visible Light
Length of Day
Tomorrow will be .
, % of the Moon is Illuminated

Today's Extremes

State Highs State Lows

Community

WunderPhotos

Upload Photos

1,817,621 photos uploaded!

WunderBlogs® & News

Nearby

Air Quality

  Air Quality AQ Index Pollutant
Not available.

Snow Depth

Station Depth Elevation

Earthquake Activity

City Distance Mag. Time & Date
Minimum magnitude displayed is 2.5.

Coastal Water Temperatures

Place Temperature

Stations

Nearby Weather Stations

Station Location Temp. Windchill Dew Point Humidity Wind Precip. Elev Updated Type